createdAt,value
2019-03-31T00:01:11.279Z,129.73
2019-03-31T00:03:44.209Z,125.80
2019-03-31T00:06:17.092Z,123.23
2019-03-31T00:08:49.993Z,113.47
2019-03-31T00:11:22.798Z,109.33
2019-03-31T00:13:55.581Z,106.70
2019-03-31T00:16:28.396Z,99.87
2019-03-31T00:19:01.454Z,114.60
2019-03-31T00:21:34.228Z,96.53
2019-03-31T00:24:07.034Z,103.10
2019-03-31T00:26:39.838Z,101.60
2019-03-31T00:29:12.750Z,84.83
2019-03-31T00:31:45.568Z,111.27
2019-03-31T00:34:18.548Z,127.07
2019-03-31T00:36:53.341Z,127.47
2019-03-31T00:39:26.184Z,130.80
2019-03-31T00:41:58.974Z,116.87
2019-03-31T00:44:32.076Z,131.20
2019-03-31T00:47:06.366Z,117.53
2019-03-31T00:49:39.222Z,107.20
2019-03-31T00:52:12.070Z,104.53
2019-03-31T00:54:44.930Z,110.63
2019-03-31T00:57:17.696Z,87.70
2019-03-31T00:59:50.494Z,81.03
2019-03-31T01:02:27.259Z,59.63
2019-03-31T01:05:00.341Z,81.93
2019-03-31T01:07:33.356Z,94.00
2019-03-31T01:10:06.872Z,227.10
2019-03-31T01:12:40.145Z,295.97
2019-03-31T01:15:17.323Z,154.23
2019-03-31T01:17:50.937Z,153.67
2019-03-31T01:20:23.773Z,178.03
2019-03-31T01:22:56.676Z,217.63
2019-03-31T01:25:29.524Z,169.77
2019-03-31T01:28:02.719Z,139.30
2019-03-31T01:30:35.761Z,142.90
2019-03-31T01:33:08.642Z,117.97
2019-03-31T01:35:41.576Z,114.33
2019-03-31T01:38:14.457Z,138.23
2019-03-31T01:40:47.287Z,140.47
2019-03-31T01:43:21.191Z,113.00
2019-03-31T01:45:54.162Z,125.40
2019-03-31T01:48:26.960Z,116.87
2019-03-31T01:50:59.883Z,124.73
2019-03-31T01:53:32.760Z,98.70
2019-03-31T01:56:06.242Z,100.83
2019-03-31T01:58:39.007Z,83.37
2019-03-31T02:01:14.203Z,88.87
2019-03-31T02:03:47.094Z,104.07
2019-03-31T02:06:19.944Z,112.00
2019-03-31T02:08:52.705Z,103.87
2019-03-31T02:11:25.806Z,100.13
2019-03-31T02:13:58.589Z,95.20
2019-03-31T02:16:32.134Z,97.23
2019-03-31T02:19:05.166Z,92.10
2019-03-31T02:21:37.972Z,91.87
2019-03-31T02:24:10.744Z,84.27
2019-03-31T02:26:43.556Z,84.80
2019-03-31T02:29:16.456Z,89.47
2019-03-31T02:31:49.351Z,90.93
2019-03-31T02:34:22.276Z,70.17
2019-03-31T02:36:55.098Z,77.53
2019-03-31T02:39:28.018Z,85.63
2019-03-31T02:42:01.585Z,94.00
2019-03-31T02:44:34.499Z,92.90
2019-03-31T02:47:07.379Z,58.67
2019-03-31T02:49:38.772Z,51.10
2019-03-31T02:52:11.742Z,51.97
2019-03-31T02:54:44.876Z,48.43
2019-03-31T02:57:18.040Z,58.33
2019-03-31T02:59:53.633Z,54.63
2019-03-31T03:02:41.443Z,71.60
2019-03-31T03:05:19.006Z,57.00
2019-03-31T03:07:43.905Z,58.20
2019-03-31T03:10:16.684Z,74.27
2019-03-31T03:12:51.954Z,68.23
2019-03-31T03:15:30.514Z,91.23
2019-03-31T03:18:03.463Z,92.43
2019-03-31T03:20:36.238Z,77.60
2019-03-31T03:23:09.003Z,60.13
2019-03-31T03:25:54.825Z,87.63
2019-03-31T03:28:16.704Z,57.07
2019-03-31T03:30:49.577Z,63.83
2019-03-31T03:33:22.682Z,63.83
2019-03-31T03:35:55.624Z,58.17
2019-03-31T03:38:28.408Z,56.43
2019-03-31T03:41:01.650Z,46.57
2019-03-31T03:43:34.419Z,46.83
2019-03-31T03:46:07.202Z,68.93
2019-03-31T03:48:39.979Z,97.97
2019-03-31T03:51:12.837Z,97.37
2019-03-31T03:53:45.749Z,89.70
2019-03-31T03:56:18.515Z,83.43
2019-03-31T03:58:51.712Z,77.10
2019-03-31T04:01:27.466Z,83.43
2019-03-31T04:04:00.362Z,73.60
2019-03-31T04:06:33.251Z,96.77
2019-03-31T04:09:07.766Z,74.07
2019-03-31T04:11:40.874Z,81.20
2019-03-31T04:14:13.747Z,86.57
2019-03-31T04:16:46.492Z,87.50
2019-03-31T04:19:19.318Z,64.47
2019-03-31T04:21:52.095Z,60.00
2019-03-31T04:24:24.871Z,61.27
2019-03-31T04:26:57.779Z,58.47
2019-03-31T04:29:30.647Z,88.27
2019-03-31T04:32:03.491Z,75.57
2019-03-31T04:34:36.353Z,83.30
2019-03-31T04:37:09.266Z,99.60
2019-03-31T04:39:42.294Z,88.60
2019-03-31T04:42:15.112Z,80.73
2019-03-31T04:44:51.181Z,85.93
2019-03-31T04:47:23.944Z,64.10
2019-03-31T04:49:56.746Z,88.17
2019-03-31T04:52:29.590Z,97.43
2019-03-31T04:55:02.580Z,96.83
2019-03-31T04:57:35.337Z,105.23
2019-03-31T05:00:08.428Z,112.53
2019-03-31T05:02:41.218Z,124.20
2019-03-31T05:05:13.998Z,121.70
2019-03-31T05:07:46.837Z,120.57
2019-03-31T05:10:19.657Z,98.83
2019-03-31T05:12:53.576Z,90.20
2019-03-31T05:15:26.450Z,100.83
2019-03-31T05:17:59.260Z,109.50
2019-03-31T05:20:32.224Z,101.37
2019-03-31T05:23:05.035Z,98.83
2019-03-31T05:25:38.016Z,88.87
2019-03-31T05:28:10.827Z,94.97
2019-03-31T05:30:43.604Z,86.03
2019-03-31T05:33:16.513Z,83.27
2019-03-31T05:35:50.982Z,97.27
2019-03-31T05:38:23.760Z,90.97
2019-03-31T05:40:56.552Z,92.43
2019-03-31T05:43:29.406Z,105.93
2019-03-31T05:46:02.535Z,98.63
2019-03-31T05:48:35.350Z,104.43
2019-03-31T05:51:09.283Z,102.43
2019-03-31T05:53:42.084Z,106.37
2019-03-31T05:56:14.909Z,94.53
2019-03-31T05:58:47.702Z,100.27
2019-03-31T06:01:20.534Z,98.57
2019-03-31T06:03:53.392Z,89.23
2019-03-31T06:06:26.204Z,84.52
2019-03-31T06:08:59.032Z,84.07
2019-03-31T06:11:31.970Z,75.15
2019-03-31T06:14:04.796Z,78.57
2019-03-31T06:16:37.722Z,69.65
2019-03-31T06:19:11.105Z,57.80
2019-03-31T06:21:44.018Z,46.08
2019-03-31T06:24:16.966Z,41.05
2019-03-31T06:26:49.864Z,46.83
2019-03-31T06:29:22.624Z,39.25
2019-03-31T06:31:55.565Z,36.58
2019-03-31T06:34:29.548Z,35.78
2019-03-31T06:37:02.387Z,39.03
2019-03-31T06:39:35.286Z,45.30
2019-03-31T06:42:08.113Z,43.45
2019-03-31T06:44:41.402Z,40.65
2019-03-31T06:47:14.373Z,48.35
2019-03-31T06:49:47.298Z,47.60
2019-03-31T06:52:20.158Z,39.25
2019-03-31T06:54:52.982Z,44.65
2019-03-31T06:57:25.970Z,63.20
2019-03-31T07:00:01.701Z,106.40
2019-03-31T07:02:34.571Z,63.02
2019-03-31T07:05:07.891Z,65.97
2019-03-31T07:07:41.333Z,71.62
2019-03-31T07:10:14.973Z,57.80
2019-03-31T07:12:49.763Z,47.23
2019-03-31T07:15:22.532Z,43.80
2019-03-31T07:17:55.425Z,43.52
2019-03-31T07:20:28.451Z,47.90
2019-03-31T07:23:01.334Z,38.78
2019-03-31T07:25:37.056Z,44.83
2019-03-31T07:28:08.876Z,41.28
2019-03-31T07:30:41.734Z,38.40
2019-03-31T07:33:16.199Z,35.43
2019-03-31T07:35:48.995Z,30.05
2019-03-31T07:38:22.090Z,27.05
2019-03-31T07:40:55.415Z,24.98
2019-03-31T07:43:28.302Z,22.32
2019-03-31T07:46:01.202Z,22.58
2019-03-31T07:48:34.130Z,21.33
2019-03-31T07:51:06.934Z,18.17
2019-03-31T07:53:39.863Z,21.35
2019-03-31T07:56:15.975Z,18.07
2019-03-31T07:58:47.342Z,25.70
2019-03-31T08:01:20.158Z,24.77
2019-03-31T08:03:53.085Z,27.62
2019-03-31T08:06:26.052Z,21.25
2019-03-31T08:08:58.894Z,21.02
2019-03-31T08:11:32.180Z,56.30
2019-03-31T08:14:04.992Z,22.73
2019-03-31T08:16:37.864Z,31.90
2019-03-31T08:19:10.888Z,48.50
2019-03-31T08:21:43.801Z,42.30
2019-03-31T08:24:16.747Z,19.30
2019-03-31T08:26:49.641Z,19.85
2019-03-31T08:29:24.252Z,21.05
2019-03-31T08:31:57.178Z,21.75
2019-03-31T08:34:29.984Z,18.30
2019-03-31T08:37:02.798Z,17.67
2019-03-31T08:39:35.664Z,18.57
2019-03-31T08:42:09.684Z,19.77
2019-03-31T08:44:42.658Z,18.82
2019-03-31T08:47:15.515Z,27.73
2019-03-31T08:49:48.348Z,23.70
2019-03-31T08:52:21.486Z,19.30
2019-03-31T08:54:54.688Z,16.23
2019-03-31T08:57:27.501Z,15.83
2019-03-31T09:00:01.394Z,16.10
2019-03-31T09:02:35.617Z,16.52
2019-03-31T09:05:10.253Z,17.95
2019-03-31T09:07:43.185Z,26.17
2019-03-31T09:10:16.280Z,32.15
2019-03-31T09:12:49.143Z,23.42
2019-03-31T09:15:22.359Z,21.50
2019-03-31T09:17:55.131Z,17.52
2019-03-31T09:20:27.912Z,19.77
2019-03-31T09:23:01.028Z,15.00
2019-03-31T09:25:36.059Z,14.60
2019-03-31T09:28:09.077Z,13.25
2019-03-31T09:30:42.140Z,15.08
2019-03-31T09:33:15.023Z,13.80
2019-03-31T09:35:47.885Z,14.23
2019-03-31T09:38:20.722Z,14.30
2019-03-31T09:40:53.700Z,14.30
2019-03-31T09:43:26.439Z,17.12
2019-03-31T09:46:00.828Z,16.75
2019-03-31T09:48:33.675Z,18.62
2019-03-31T09:51:07.617Z,20.45
2019-03-31T09:53:42.333Z,23.38
2019-03-31T09:56:16.963Z,23.57
2019-03-31T09:58:51.602Z,24.65
2019-03-31T10:01:24.428Z,26.42
2019-03-31T10:03:57.210Z,27.73
2019-03-31T10:06:30.865Z,24.65
2019-03-31T10:09:04.538Z,22.82
2019-03-31T10:11:37.496Z,25.92
2019-03-31T10:14:10.324Z,25.00
2019-03-31T10:16:43.137Z,23.77
2019-03-31T10:19:15.968Z,26.80
2019-03-31T10:21:48.898Z,26.23
2019-03-31T10:24:22.087Z,23.73
2019-03-31T10:26:54.954Z,23.32
2019-03-31T10:29:27.860Z,22.52
2019-03-31T10:32:00.741Z,22.25
2019-03-31T10:34:33.541Z,23.25
2019-03-31T10:37:06.336Z,24.40
2019-03-31T10:39:39.256Z,25.17
2019-03-31T10:42:12.046Z,24.50
2019-03-31T10:44:44.938Z,25.17
2019-03-31T10:47:17.830Z,20.60
2019-03-31T10:49:51.022Z,18.77
2019-03-31T10:52:23.985Z,16.02
2019-03-31T10:54:56.948Z,15.23
2019-03-31T10:57:29.735Z,15.13
2019-03-31T11:00:02.780Z,12.07
2019-03-31T11:02:35.760Z,12.82
2019-03-31T11:05:08.882Z,11.35
2019-03-31T11:07:41.922Z,9.63
2019-03-31T11:10:14.841Z,9.38
2019-03-31T11:12:50.809Z,9.38
2019-03-31T11:15:23.886Z,9.60
2019-03-31T11:17:56.665Z,9.30
2019-03-31T11:20:29.584Z,7.50
2019-03-31T11:23:18.280Z,8.63
2019-03-31T11:25:51.577Z,8.63
2019-03-31T11:28:27.245Z,10.05
2019-03-31T11:31:00.044Z,10.05
2019-03-31T11:33:32.891Z,12.53
2019-03-31T11:36:05.718Z,8.78
2019-03-31T11:38:38.673Z,11.15
2019-03-31T11:41:11.458Z,10.10
2019-03-31T11:43:44.327Z,9.48
2019-03-31T11:46:19.857Z,6.83
2019-03-31T11:48:52.725Z,8.28
2019-03-31T11:51:25.583Z,8.65
2019-03-31T11:53:58.359Z,9.93
2019-03-31T11:56:31.157Z,11.60
2019-03-31T11:59:03.920Z,11.35
2019-03-31T12:01:37.882Z,13.90
2019-03-31T12:04:10.761Z,12.23
2019-03-31T12:06:44.665Z,14.38
2019-03-31T12:09:17.736Z,13.93
2019-03-31T12:11:50.606Z,14.90
2019-03-31T12:14:23.399Z,15.60
2019-03-31T12:16:56.378Z,13.93
2019-03-31T12:19:29.160Z,17.30
2019-03-31T12:22:02.126Z,16.57
2019-03-31T12:24:35.028Z,14.93
2019-03-31T12:27:07.963Z,20.02
2019-03-31T12:29:41.366Z,25.50
2019-03-31T12:32:15.352Z,35.10
2019-03-31T12:34:48.462Z,25.40
2019-03-31T12:37:21.363Z,21.43
2019-03-31T12:39:54.121Z,17.13
2019-03-31T12:42:26.958Z,19.00
2019-03-31T12:45:00.742Z,24.43
2019-03-31T12:47:35.452Z,20.57
2019-03-31T12:50:09.043Z,19.20
2019-03-31T12:52:47.454Z,22.87
2019-03-31T12:55:18.020Z,21.43
2019-03-31T12:57:52.053Z,19.67
2019-03-31T13:00:25.229Z,23.03
2019-03-31T13:02:58.131Z,19.60
2019-03-31T13:05:31.321Z,20.50
2019-03-31T13:08:04.249Z,23.80
2019-03-31T13:10:37.372Z,28.73
2019-03-31T13:13:10.157Z,29.43
2019-03-31T13:15:43.077Z,25.73
2019-03-31T13:18:16.405Z,22.43
2019-03-31T13:20:49.550Z,19.30
2019-03-31T13:23:22.332Z,17.40
2019-03-31T13:25:55.144Z,21.23
2019-03-31T13:28:27.925Z,23.37
2019-03-31T13:31:00.819Z,20.90
2019-03-31T13:33:33.740Z,16.53
2019-03-31T13:36:06.605Z,16.30
2019-03-31T13:38:39.493Z,18.07
2019-03-31T13:41:12.332Z,16.17
2019-03-31T13:43:45.131Z,16.23
2019-03-31T13:46:19.087Z,15.90
2019-03-31T13:48:52.044Z,17.40
2019-03-31T13:51:25.013Z,17.93
2019-03-31T13:53:57.933Z,22.53
2019-03-31T13:56:31.150Z,20.20
2019-03-31T13:59:08.908Z,19.30
2019-03-31T14:01:39.968Z,20.00
2019-03-31T14:04:12.777Z,15.27
2019-03-31T14:06:45.855Z,13.87
2019-03-31T14:09:18.836Z,18.83
2019-03-31T14:11:52.034Z,20.93
2019-03-31T14:14:25.085Z,16.87
2019-03-31T14:16:59.962Z,23.03
2019-03-31T14:19:32.872Z,25.30
2019-03-31T14:22:05.896Z,37.37
2019-03-31T14:24:38.771Z,17.70
2019-03-31T14:27:11.513Z,17.87
2019-03-31T14:29:44.387Z,19.67
2019-03-31T14:32:17.223Z,19.90
2019-03-31T14:34:50.004Z,19.53
2019-03-31T14:37:22.806Z,21.90
2019-03-31T14:39:55.708Z,26.77
2019-03-31T14:42:28.784Z,22.10
2019-03-31T14:45:01.897Z,19.97
2019-03-31T14:47:34.792Z,19.57
2019-03-31T14:50:08.438Z,35.30
2019-03-31T14:52:42.525Z,30.60
2019-03-31T14:55:15.445Z,34.60
2019-03-31T14:57:48.333Z,25.10
2019-03-31T15:00:21.412Z,20.30
2019-03-31T15:02:54.754Z,16.47
2019-03-31T15:05:27.632Z,21.33
2019-03-31T15:08:01.762Z,26.53
2019-03-31T15:10:36.227Z,25.63
2019-03-31T15:13:09.188Z,27.40
2019-03-31T15:15:42.035Z,30.93
2019-03-31T15:18:14.887Z,32.23
2019-03-31T15:20:48.937Z,25.77
2019-03-31T15:23:28.903Z,32.50
2019-03-31T15:25:59.135Z,29.03
2019-03-31T15:28:32.033Z,27.27
2019-03-31T15:31:04.816Z,26.20
2019-03-31T15:33:37.581Z,27.23
2019-03-31T15:36:11.197Z,30.50
2019-03-31T15:38:43.980Z,27.77
2019-03-31T15:41:21.317Z,27.97
2019-03-31T15:43:51.309Z,23.83
2019-03-31T15:46:24.785Z,24.83
2019-03-31T15:48:57.852Z,36.87
2019-03-31T15:51:31.201Z,27.10
2019-03-31T15:54:04.200Z,25.10
2019-03-31T15:56:36.968Z,25.10
2019-03-31T15:59:09.856Z,21.10
2019-03-31T16:01:44.542Z,27.80
2019-03-31T16:04:17.509Z,23.77
2019-03-31T16:06:50.280Z,27.67
2019-03-31T16:09:24.368Z,26.10
2019-03-31T16:11:56.586Z,26.47
2019-03-31T16:14:28.598Z,23.23
2019-03-31T16:17:03.516Z,25.03
2019-03-31T16:19:35.603Z,22.70
2019-03-31T16:22:07.748Z,25.70
2019-03-31T16:24:43.527Z,26.13
2019-03-31T16:27:16.628Z,28.73
2019-03-31T16:29:48.875Z,30.70
2019-03-31T16:32:21.328Z,29.53
2019-03-31T16:34:53.513Z,35.43
2019-03-31T16:37:25.505Z,41.10
2019-03-31T16:39:57.546Z,45.43
2019-03-31T16:42:30.796Z,34.17
2019-03-31T16:45:02.770Z,33.60
2019-03-31T16:47:36.624Z,31.70
2019-03-31T16:50:10.784Z,33.17
2019-03-31T16:52:42.885Z,30.37
2019-03-31T16:55:15.086Z,30.17
2019-03-31T16:57:48.601Z,34.73
2019-03-31T17:00:21.220Z,31.37
2019-03-31T17:02:53.532Z,39.70
2019-03-31T17:05:25.775Z,35.73
2019-03-31T17:07:57.730Z,35.83
2019-03-31T17:10:29.954Z,40.10
2019-03-31T17:13:01.947Z,38.43
2019-03-31T17:15:34.401Z,33.97
2019-03-31T17:18:06.574Z,38.00
2019-03-31T17:20:38.680Z,37.00
2019-03-31T17:23:10.956Z,42.07
2019-03-31T17:25:44.834Z,40.50
2019-03-31T17:28:16.864Z,38.63
2019-03-31T17:30:49.056Z,42.00
2019-03-31T17:33:21.414Z,41.80
2019-03-31T17:35:53.458Z,43.40
2019-03-31T17:38:25.624Z,42.47
2019-03-31T17:40:57.596Z,51.63
2019-03-31T17:43:30.280Z,46.43
2019-03-31T17:46:02.352Z,51.13
2019-03-31T17:48:34.313Z,54.97
2019-03-31T17:51:06.356Z,47.83
2019-03-31T17:53:38.715Z,56.10
2019-03-31T17:56:10.821Z,58.67
2019-03-31T17:58:42.829Z,45.63
2019-03-31T18:01:15.094Z,49.33
2019-03-31T18:03:47.138Z,50.33
2019-03-31T18:06:19.233Z,44.73
2019-03-31T18:08:51.216Z,46.77
2019-03-31T18:11:23.316Z,50.03
2019-03-31T18:13:57.793Z,55.30
2019-03-31T18:16:30.332Z,45.07
2019-03-31T18:19:02.429Z,52.63
2019-03-31T18:21:34.690Z,46.70
2019-03-31T18:24:06.892Z,47.97
2019-03-31T18:26:39.054Z,46.13
2019-03-31T18:29:11.366Z,46.70
2019-03-31T18:31:43.371Z,45.97
2019-03-31T18:34:15.605Z,50.37
2019-03-31T18:36:47.590Z,53.30
2019-03-31T18:39:19.703Z,58.13
2019-03-31T18:41:51.860Z,48.37
2019-03-31T18:44:23.955Z,49.43
2019-03-31T18:46:55.928Z,46.70
2019-03-31T18:49:28.017Z,45.10
2019-03-31T18:52:00.516Z,47.27
2019-03-31T18:54:46.184Z,45.93
2019-03-31T18:57:29.822Z,50.03
2019-03-31T19:00:19.767Z,44.60
2019-03-31T19:03:12.832Z,42.53
2019-03-31T19:06:11.169Z,42.67
2019-03-31T19:09:02.023Z,41.60
2019-03-31T19:11:44.310Z,41.33
2019-03-31T19:14:33.952Z,41.77
2019-03-31T19:17:23.516Z,36.50
2019-03-31T19:20:20.540Z,45.20
2019-03-31T19:23:04.385Z,38.63
2019-03-31T19:26:04.400Z,35.07
2019-03-31T19:28:58.353Z,41.73
2019-03-31T19:31:50.121Z,45.17
2019-03-31T19:34:43.766Z,38.03
2019-03-31T19:37:37.399Z,44.13
2019-03-31T19:40:32.712Z,46.53
2019-03-31T19:43:22.103Z,39.30
2019-03-31T19:46:06.364Z,39.83
2019-03-31T19:48:43.432Z,41.93
2019-03-31T19:51:49.462Z,40.40
2019-03-31T19:54:39.205Z,39.40
2019-03-31T19:57:45.507Z,42.10
2019-03-31T20:00:39.111Z,39.37
2019-03-31T20:03:32.553Z,43.50
2019-03-31T20:06:13.237Z,36.17
2019-03-31T20:08:59.604Z,42.70
2019-03-31T20:11:43.190Z,48.53
2019-03-31T20:14:30.554Z,45.53
2019-03-31T20:17:13.062Z,45.13
2019-03-31T20:20:03.346Z,47.47
2019-03-31T20:22:50.586Z,43.43
2019-03-31T20:26:00.142Z,45.73
2019-03-31T20:28:49.832Z,38.17
2019-03-31T20:31:39.489Z,40.90
2019-03-31T20:34:18.154Z,40.97
2019-03-31T20:37:16.959Z,37.17
2019-03-31T20:40:06.675Z,36.20
2019-03-31T20:42:49.494Z,38.77
2019-03-31T20:45:21.526Z,36.40
2019-03-31T20:47:53.670Z,42.33
2019-03-31T20:50:25.759Z,36.30
2019-03-31T20:52:57.829Z,39.03
2019-03-31T20:55:30.427Z,35.33
2019-03-31T20:58:02.442Z,39.13
2019-03-31T21:00:34.426Z,39.67
2019-03-31T21:03:06.458Z,39.50
2019-03-31T21:05:38.542Z,34.17
2019-03-31T21:08:10.656Z,37.63
2019-03-31T21:10:42.622Z,36.23
2019-03-31T21:13:14.632Z,33.23
2019-03-31T21:15:47.574Z,36.73
2019-03-31T21:18:19.671Z,33.87
2019-03-31T21:20:51.655Z,38.47
2019-03-31T21:23:24.312Z,32.50
2019-03-31T21:25:56.417Z,38.67
2019-03-31T21:28:28.527Z,33.43
2019-03-31T21:31:00.948Z,39.30
2019-03-31T21:33:34.407Z,33.50
2019-03-31T21:36:06.469Z,33.50
2019-03-31T21:38:38.531Z,37.37
2019-03-31T21:41:14.013Z,38.27
2019-03-31T21:43:44.944Z,40.73
2019-03-31T21:46:16.901Z,42.30
2019-03-31T21:48:48.928Z,41.33
2019-03-31T21:51:21.103Z,42.60
2019-03-31T21:53:53.331Z,41.20
2019-03-31T21:56:25.399Z,38.47
2019-03-31T21:58:59.231Z,39.77
2019-03-31T22:01:33.119Z,37.83
2019-03-31T22:04:06.485Z,36.97
2019-03-31T22:06:38.655Z,42.37
2019-03-31T22:09:12.033Z,38.97
2019-03-31T22:11:44.113Z,39.40
2019-03-31T22:14:18.449Z,37.30
2019-03-31T22:16:50.406Z,33.03
2019-03-31T22:19:24.249Z,35.40
2019-03-31T22:21:56.220Z,39.60
2019-03-31T22:24:28.382Z,36.47
2019-03-31T22:27:00.735Z,33.10
2019-03-31T22:29:32.857Z,32.57
2019-03-31T22:32:04.955Z,35.47
2019-03-31T22:34:36.949Z,33.00
2019-03-31T22:37:09.095Z,34.63
2019-03-31T22:42:01.773Z,32.87
2019-03-31T22:44:33.862Z,31.93
2019-03-31T22:47:05.870Z,32.67
2019-03-31T22:49:37.882Z,35.10
2019-03-31T22:52:10.268Z,36.20
2019-03-31T22:54:42.337Z,33.77
2019-03-31T22:57:14.377Z,32.83
2019-03-31T22:59:46.503Z,31.00
2019-03-31T23:02:19.039Z,30.00
2019-03-31T23:04:51.015Z,30.40
2019-03-31T23:07:23.029Z,30.23
2019-03-31T23:09:55.134Z,36.00
2019-03-31T23:12:27.161Z,32.77
2019-03-31T23:14:59.133Z,34.23
2019-03-31T23:17:31.169Z,36.43
2019-03-31T23:20:05.192Z,32.73
2019-03-31T23:22:37.150Z,30.90
2019-03-31T23:25:09.207Z,33.10
2019-03-31T23:27:41.457Z,30.57
2019-03-31T23:30:13.830Z,26.77
2019-03-31T23:32:45.918Z,33.27
2019-03-31T23:35:17.889Z,33.30
2019-03-31T23:37:49.980Z,36.60
2019-03-31T23:40:22.200Z,31.70
2019-03-31T23:42:54.699Z,36.70
2019-03-31T23:45:26.697Z,34.67
2019-03-31T23:47:58.705Z,33.40
2019-03-31T23:50:31.306Z,38.70
2019-03-31T23:53:03.312Z,34.93
2019-03-31T23:55:36.988Z,40.87
2019-03-31T23:58:09.007Z,34.93
